CheckWX is a tool to help pilots better visualize weather data.  It is not intended as a substitute for an official pre-flight weather briefing.

04:51:53 UTC

KMRH METAR
Michael J Smith Field Airport
Beaufort, North Carolina, USA
Current

54 mins ago

KMRH 160358Z AUTO 21009KT 10SM CLR 24/16 A3013 RMK AO2 SLP204 T02390156
Observed
Jun-16 @ 03:58 UTC
Wind
  • 210° at 9 KTS
Visibility
10 SM
Flight Rules
VFR
Cloud Levels
  • Clear skies
Temperature
24°C / 75°F
Dewpoint
16°C / 61°F
Humidity
61%
Altimeter
30.13" Hg
Pressure
1020.32 hPa
Previous

2 hours ago

KMRH 160258Z AUTO 20010KT 10SM CLR 23/16 A3015 RMK AO2 SLP209 T02330156 55003
Observed
Jun-16 @ 02:58 UTC
Wind
  • 200° at 10 KTS
Visibility
10 SM
Flight Rules
VFR
Cloud Levels
  • Clear skies
Temperature
23°C / 73°F
Dewpoint
16°C / 61°F
Humidity
65%
Altimeter
30.15" Hg
Pressure
1021.02 hPa
Previous

3 hours ago

KMRH 160158Z AUTO 20009KT 10SM CLR 24/15 A3014 RMK AO2 SLP207 T02390150
Observed
Jun-16 @ 01:58 UTC
Wind
  • 200° at 9 KTS
Visibility
10 SM
Flight Rules
VFR
Cloud Levels
  • Clear skies
Temperature
24°C / 75°F
Dewpoint
15°C / 59°F
Humidity
57%
Altimeter
30.14" Hg
Pressure
1020.62 hPa